Latest Coastal Weather Observations for Wadeye (Port Keats)

IDD60701

Issued at 7:21 am CST Friday 29 April 2016 (issued every 10 minutes, with the page automatically refreshed every 10 minutes)

About coastal observations | Map of coastal stations | Coastal observations for NT | Marine services | Other Formats
Station Details ID: 014948 Name: PORT KEATS AIRPORT Lat: -14.25 Lon: 129.53 Height: 28.0 m
Data from the previous 72 hours. | See also: Recent months at Wadeye (Port Keats)
Date/Time
CST
Temp

°C
Wind Pressure Rain
since 9am
mm
Weather Cloud Vis
km
Sea
Height
m
Swell
Dir
 
Speed
knots
Gust
knots
hPa Trend Height
m
Period
s
Dir
29/07:00am 24.5 CALM 0 0 1011.3 - 0.0 - - - - - - -
29/06:30am 25.6 CALM 0 0 1010.9 - 0.0 - - - - - - -
29/06:00am 25.3 CALM 0 0 1010.8 - 0.0 - - - - - - -
29/05:30am 25.1 E 1 4 1010.5 - 0.0 - - - - - - -
29/05:00am 24.2 CALM 0 0 1010.3 - 0.0 - - - - - - -
29/04:30am 24.6 CALM 0 0 1010.2 - 0.0 - - - - - - -
29/04:00am 24.6 CALM 0 0 1010.2 - 0.0 - - - - - - -
29/03:30am 24.9 CALM 0 0 1010.3 - 0.0 - - - - - - -
29/03:00am 25.0 NE 2 4 1010.3 - 0.0 - - - - - - -
29/02:30am 23.6 CALM 0 0 1010.5 - 0.0 - - - - - - -
29/02:00am 23.6 CALM 0 0 1010.7 - 0.0 - - - - - - -
29/01:30am 23.8 CALM 0 0 1010.9 - 0.0 - - - - - - -
29/01:00am 24.0 SE 3 4 1011.1 - 0.0 - - - - - - -
29/12:30am 23.1 CALM 0 0 1011.2 - 0.0 - - - - - - -
29/12:00am 23.4 CALM 0 0 1011.2 - 0.0 - - - - - - -
 
Date/Time
CST
Temp

°C
Wind Pressure Rain
since 9am
mm
Weather Cloud Vis
km
Sea
Height
m
Swell
Dir
 
Speed
knots
Gust
knots
hPa Trend Height
m
Period
s
Dir
28/11:30pm 23.7 CALM 0 4 1011.4 - 0.0 - - - - - - -
28/11:00pm 24.3 CALM 0 0 1011.5 - 0.0 - - - - - - -
28/10:30pm 24.6 CALM 0 0 1011.4 - 0.0 - - - - - - -
28/10:00pm 24.7 CALM 0 0 1011.2 - 0.0 - - - - - - -
28/09:30pm 25.2 CALM 0 0 1011.1 - 0.0 - - - - - - -
28/09:00pm 25.3 CALM 0 0 1011.0 - 0.0 - - - - - - -
28/08:30pm 26.0 CALM 0 0 1011.0 - 0.0 - - - - - - -
28/08:00pm 26.7 CALM 0 0 1010.7 - 0.0 - - - - - - -
28/07:30pm 28.0 NNW 1 4 1010.2 - 0.0 - - - - - - -
28/07:00pm 28.8 CALM 0 0 1009.9 - 0.0 - - - - - - -
28/06:30pm 30.1 CALM 0 0 1009.7 - 0.0 - - - - - - -
28/06:00pm 31.6 WNW 4 6 1009.3 - 0.0 - - - - - - -
28/05:30pm 32.3 WSW 5 8 1009.0 - 0.0 - - - - - - -
28/05:00pm 32.2 NW 8 11 1008.7 - 0.0 - - - - - - -
28/04:30pm 32.8 NW 8 12 1008.6 - 0.0 - - - - - - -
28/04:00pm 33.0 NW 8 13 1008.5 - 0.0 - - - - - - -
28/03:30pm 34.0 N 8 11 1008.5 - 0.0 - - - - - - -
28/03:00pm 34.0 NNE 7 11 1008.7 - 0.0 - - - - - - -
28/02:30pm 33.9 SSW 3 5 1008.8 - 0.0 - - - - - - -
28/02:00pm 33.8 NNW 5 8 1009.1 - 0.0 - - - - - - -
28/01:30pm 34.0 E 6 9 1009.5 - 0.0 - - - - - - -
28/01:00pm 33.9 NNE 8 11 1010.0 - 0.0 - - - - - - -
28/12:30pm 33.4 NNE 9 13 1010.4 - 0.0 - - - - - - -
28/12:00pm 33.0 NE 7 10 1010.8 - 0.0 - - - - - - -
28/11:30am 32.5 NNE 7 11 1011.2 - 0.0 - - - - - - -
28/11:00am 33.5 NNE 5 8 1011.5 - 0.0 - - - - - - -
28/10:30am 32.6 ENE 5 8 1011.7 - 0.0 - - - - - - -
28/10:00am 31.7 E 3 6 1011.7 - 0.0 - - - - - - -
28/09:30am 30.4 SE 3 5 1011.6 - 0.0 - - - - - - -
28/09:00am 28.8 E 2 4 1011.3 - 0.0 - - - - - - -
28/08:30am 25.0 CALM 0 0 1011.0 - 0.0 - - - - - - -
28/08:00am 23.3 CALM 0 0 1010.7 - 0.0 - - - - - - -
28/07:30am 23.1 CALM 0 0 1010.1 - 0.0 - - - - - - -
28/07:00am 21.9 CALM 0 0 1009.6 - 0.0 - - - - - - -
28/06:30am 21.5 CALM 0 0 1009.2 - 0.0 - - - - - - -
28/06:00am 21.5 CALM 0 0 1009.0 - 0.0 - - - - - - -
28/05:30am 21.5 CALM 0 0 1008.9 - 0.0 - - - - - - -
28/05:00am 21.5 CALM 0 0 1008.8 - 0.0 - - - - - - -
28/04:30am 21.8 CALM 0 0 1008.9 - 0.0 - - - - - - -
28/04:00am 22.1 CALM 0 0 1009.0 - 0.0 - - - - - - -
28/03:30am 22.0 CALM 0 0 1009.0 - 0.0 - - - - - - -
28/03:00am 23.3 CALM 0 0 1009.2 - 0.0 - - - - - - -
28/02:30am 23.1 SE 5 5 1009.3 - 0.0 - - - - - - -
28/02:00am 23.1 CALM 0 0 1009.3 - 0.0 - - - - - - -
28/01:30am 22.7 CALM 0 0 1009.4 - 0.0 - - - - - - -
28/01:00am 23.1 CALM 0 0 1009.6 - 0.0 - - - - - - -
28/12:30am 24.6 E 1 3 1009.6 - 0.0 - - - - - - -
28/12:00am 24.7 CALM 0 0 1009.7 - 0.0 - - - - - - -
 
Date/Time
CST
Temp

°C
Wind Pressure Rain
since 9am
mm
Weather Cloud Vis
km
Sea
Height
m
Swell
Dir
 
Speed
knots
Gust
knots
hPa Trend Height
m
Period
s
Dir
27/11:30pm 24.7 CALM 0 0 1009.9 - 0.0 - - - - - - -
27/11:00pm 24.6 S 4 5 1010.0 - 0.0 - - - - - - -
27/10:30pm 24.1 S 3 4 1010.0 - 0.0 - - - - - - -
27/10:00pm 24.9 CALM 0 0 1010.1 - 0.0 - - - - - - -
27/09:30pm 26.0 CALM 0 0 1009.9 - 0.0 - - - - - - -
27/09:00pm 26.3 CALM 0 0 1009.8 - 0.0 - - - - - - -
27/08:30pm 25.9 CALM 0 0 1009.4 - 0.0 - - - - - - -
27/08:00pm 27.6 CALM 0 0 1009.2 - 0.0 - - - - - - -
27/07:30pm 28.0 CALM 0 0 1008.9 - 0.0 - - - - - - -
27/07:00pm 28.5 SW 3 4 1008.6 - 0.0 - - - - - - -
27/06:30pm 29.4 SW 4 6 1008.4 - 0.0 - - - - - - -
27/06:00pm 31.1 WSW 5 8 1008.3 - 0.0 - - - - - - -
27/05:30pm 32.5 WSW 5 7 1008.1 - 0.0 - - - - - - -
27/05:00pm 32.8 WSW 5 8 1007.8 - 0.0 - - - - - - -
27/04:30pm 33.1 WNW 7 9 1007.7 - 0.0 - - - - - - -
27/04:00pm 33.1 W 6 10 1007.7 - 0.0 - - - - - - -
27/03:30pm 33.4 W 6 8 1007.8 - 0.0 - - - - - - -
27/03:00pm 32.7 W 5 8 1008.1 - 0.0 - - - - - - -
27/02:30pm 31.7 W 8 11 1008.4 - 0.0 - - - - - - -
27/02:00pm 32.3 WNW 6 10 1008.8 - 0.0 - - - - - - -
27/01:30pm 33.7 SE 4 7 1009.1 - 0.0 - - - - - - -
27/01:00pm 34.5 SE 6 8 1009.4 - 0.0 - - - - - - -
27/12:30pm 34.9 SE 5 11 1009.7 - 0.0 - - - - - - -
27/12:00pm 34.3 SSE 4 7 1010.1 - 0.0 - - - - - - -
27/11:30am 33.5 SSE 4 7 1010.6 - 0.0 - - - - - - -
27/11:00am 32.7 S 5 7 1011.1 - 0.0 - - - - - - -
27/10:30am 31.8 S 4 6 1011.4 - 0.0 - - - - - - -
27/10:00am 30.2 S 4 6 1011.8 - 0.0 - - - - - - -
27/09:30am 29.5 SE 6 7 1011.8 - 0.0 - - - - - - -
27/09:00am 27.1 ESE 4 5 1011.8 - 0.0 - - - - - - -
27/08:30am 25.8 E 4 6 1011.5 - 0.0 - - - - - - -
27/08:00am 24.5 CALM 0 0 1011.1 - 0.0 - - - - - - -
27/07:30am 22.7 CALM 0 0 1010.9 - 0.0 - - - - - - -
27/07:00am 22.3 CALM 0 0 1010.7 - 0.0 - - - - - - -
27/06:30am 22.3 CALM 0 0 1010.3 - 0.0 - - - - - - -
27/06:00am 23.1 CALM 0 0 1010.1 - 0.0 - - - - - - -
27/05:30am 22.9 CALM 0 0 1009.8 - 0.0 - - - - - - -
27/05:00am 23.2 ENE 1 6 1009.8 - 0.0 - - - - - - -
27/04:30am 23.6 CALM 0 0 1009.8 - 0.0 - - - - - - -
27/04:00am 23.7 CALM 0 0 1009.9 - 0.0 - - - - - - -
27/03:30am 24.6 ENE 2 4 1009.9 - 0.0 - - - - - - -
27/03:00am 25.2 S 4 6 1010.0 - 0.0 - - - - - - -
27/02:30am 24.1 SSW 5 7 1010.2 - 0.0 - - - - - - -
27/02:00am 23.1 CALM 0 0 1010.3 - 0.0 - - - - - - -
27/01:30am 23.5 CALM 0 0 1010.5 - 0.0 - - - - - - -
27/01:00am 23.3 SSW 3 4 1010.7 - 0.0 - - - - - - -
27/12:30am 24.0 SSE 1 4 1011.1 - 0.0 - - - - - - -
27/12:00am 24.7 CALM 0 0 1011.1 - 0.0 - - - - - - -
 
Date/Time
CST
Temp

°C
Wind Pressure Rain
since 9am
mm
Weather Cloud Vis
km
Sea
Height
m
Swell
Dir
 
Speed
knots
Gust
knots
hPa Trend Height
m
Period
s
Dir
26/11:30pm 24.5 CALM 0 3 1011.1 - 0.0 - - - - - - -
26/11:00pm 24.5 CALM 0 0 1011.2 - 0.0 - - - - - - -
26/10:30pm 24.7 CALM 0 0 1011.3 - 0.0 - - - - - - -
26/10:00pm 25.6 CALM 0 0 1011.4 - 0.0 - - - - - - -
26/09:30pm 25.8 CALM 0 0 1011.4 - 0.0 - - - - - - -
26/09:00pm 25.8 WSW 2 3 1011.3 - 0.0 - - - - - - -
26/08:30pm 26.3 CALM 0 0 1011.0 - 0.0 - - - - - - -
26/08:00pm 27.2 CALM 0 0 1010.4 - 0.0 - - - - - - -
26/07:30pm 28.2 WNW 3 4 1010.0 - 0.0 - - - - - - -
26/07:00pm 28.8 W 3 4 1009.8 - 0.0 - - - - - - -
26/06:30pm 29.7 W 3 4 1009.6 - 0.0 - - - - - - -
26/06:00pm 30.9 W 4 7 1009.4 - 0.0 - - - - - - -
26/05:30pm 32.0 WNW 5 8 1009.2 - 0.0 - - - - - - -
26/05:00pm 32.9 WNW 4 7 1009.0 - 0.0 - - - - - - -
26/04:30pm 32.8 ESE 4 6 1008.7 - 0.0 - - - - - - -
26/04:00pm 33.5 ESE 3 5 1008.7 - 0.0 - - - - - - -
26/03:30pm 34.6 E 5 8 1008.8 - 0.0 - - - - - - -
26/03:00pm 34.7 ENE 7 10 1008.9 - 0.0 - - - - - - -
26/02:30pm 34.7 ENE 6 14 1009.0 - 0.0 - - - - - - -
26/02:00pm 34.3 ENE 9 13 1009.2 - 0.0 - - - - - - -
26/01:30pm 34.0 ENE 8 12 1009.5 - 0.0 - - - - - - -
26/01:00pm 33.9 ENE 9 14 1009.8 - 0.0 - - - - - - -
26/12:30pm 33.3 ENE 10 15 1010.2 - 0.0 - - - - - - -
26/12:00pm 33.2 E 8 15 1010.7 - 0.0 - - - - - - -
26/11:49am 32.5 E 11 16 1010.9 - 0.0 - - - - - - -
26/11:30am 37.5 E 10 17 1011.1 - 0.0 - - - - - - -
26/11:26am 37.4 E 8 13 1011.1 - 0.0 - - - - - - -
26/11:00am 32.0 ENE 10 15 1011.5 - 0.0 - - - - - - -
26/10:30am 31.5 E 9 13 1011.8 - 0.0 - - - - - - -
26/10:00am 30.9 E 7 11 1011.9 - 0.0 - - - - - - -
26/09:30am 29.6 ESE 8 11 1011.7 - 0.0 - - - - - - -
26/09:00am 28.3 ESE 7 11 1011.6 - 0.0 - - - - - - -
26/08:30am 27.4 ESE 7 11 1011.5 - 0.0 - - - - - - -
26/08:00am 26.6 ESE 7 9 1011.4 - 0.0 - - - - - - -
26/07:30am 25.6 SE 6 8 1011.0 - 0.0 - - - - - - -

Other Formats:

Comma delimited format used in spreadsheet applications
http://www.bom.gov.au/fwo/IDD60701/IDD60701.95111.axf

JavaScript Object Notation format (JSON) in row-major order
http://www.bom.gov.au/fwo/IDD60701/IDD60701.95111.json